createdAt,value
2017-08-23T00:01:22.436Z,99225
2017-08-23T00:03:50.525Z,99223
2017-08-23T00:06:18.650Z,99231
2017-08-23T00:08:46.749Z,99228
2017-08-23T00:11:14.871Z,99224
2017-08-23T00:13:42.970Z,99218
2017-08-23T00:16:11.057Z,99219
2017-08-23T00:18:39.150Z,99215
2017-08-23T00:21:07.241Z,99216
2017-08-23T00:23:35.361Z,99218
2017-08-23T00:26:03.465Z,99231
2017-08-23T00:28:31.569Z,99232
2017-08-23T00:30:59.668Z,99233
2017-08-23T00:33:27.823Z,99227
2017-08-23T00:35:55.948Z,99223
2017-08-23T00:38:24.043Z,99220
2017-08-23T00:40:52.136Z,99233
2017-08-23T00:43:20.237Z,99232
2017-08-23T00:45:48.358Z,99229
2017-08-23T00:48:16.491Z,99236
2017-08-23T00:50:44.602Z,99228
2017-08-23T00:53:12.701Z,99224
2017-08-23T00:55:40.820Z,99218
2017-08-23T00:58:08.928Z,99224
2017-08-23T01:00:37.040Z,99216
2017-08-23T01:03:05.144Z,99214
2017-08-23T01:05:33.245Z,99208
2017-08-23T01:08:01.337Z,99216
2017-08-23T01:10:29.453Z,99215
2017-08-23T01:12:57.531Z,99212
2017-08-23T01:15:25.642Z,99208
2017-08-23T01:17:53.734Z,99214
2017-08-23T01:20:21.859Z,99219
2017-08-23T01:22:49.949Z,99210
2017-08-23T01:25:18.094Z,99216
2017-08-23T01:27:46.216Z,99209
2017-08-23T01:30:14.321Z,99216
2017-08-23T01:32:42.425Z,99216
2017-08-23T01:35:10.517Z,99228
2017-08-23T01:37:38.605Z,99209
2017-08-23T01:40:06.686Z,99213
2017-08-23T01:42:34.801Z,99215
2017-08-23T01:45:02.887Z,99201
2017-08-23T01:47:31.001Z,99209
2017-08-23T01:49:59.089Z,99201
2017-08-23T01:52:27.198Z,99200
2017-08-23T01:54:55.297Z,99203
2017-08-23T01:57:23.449Z,99201
2017-08-23T01:59:51.537Z,99202
2017-08-23T02:02:19.681Z,99203
2017-08-23T02:04:47.773Z,99208
2017-08-23T02:07:15.924Z,99208
2017-08-23T02:09:44.038Z,99207
2017-08-23T02:12:12.125Z,99200
2017-08-23T02:14:40.234Z,99201
2017-08-23T02:17:08.333Z,99202
2017-08-23T02:19:36.433Z,99200
2017-08-23T02:22:04.542Z,99215
2017-08-23T02:24:32.647Z,99206
2017-08-23T02:27:00.740Z,99217
2017-08-23T02:29:28.848Z,99211
2017-08-23T02:31:56.953Z,99206
2017-08-23T02:34:25.047Z,99209
2017-08-23T02:36:53.159Z,99205
2017-08-23T02:39:21.278Z,99210
2017-08-23T02:41:49.373Z,99218
2017-08-23T02:44:17.470Z,99214
2017-08-23T02:46:45.579Z,99217
2017-08-23T02:49:13.697Z,99217
2017-08-23T02:51:41.841Z,99220
2017-08-23T02:54:09.929Z,99212
2017-08-23T02:56:38.038Z,99219
2017-08-23T02:59:06.146Z,99211
2017-08-23T03:01:34.244Z,99207
2017-08-23T03:04:02.382Z,99209
2017-08-23T03:06:30.488Z,99209
2017-08-23T03:08:58.576Z,99211
2017-08-23T03:11:26.689Z,99204
2017-08-23T03:13:54.789Z,99210
2017-08-23T03:16:22.897Z,99217
2017-08-23T03:18:51.008Z,99210
2017-08-23T03:21:19.133Z,99207
2017-08-23T03:23:47.221Z,99211
2017-08-23T03:26:15.324Z,99202
2017-08-23T03:28:43.433Z,99204
2017-08-23T03:31:11.573Z,99208
2017-08-23T03:33:39.677Z,99206
2017-08-23T03:36:07.753Z,99209
2017-08-23T03:38:35.861Z,99209
2017-08-23T03:41:03.955Z,99209
2017-08-23T03:43:32.080Z,99212
2017-08-23T03:46:00.185Z,99208
2017-08-23T03:48:28.302Z,99212
2017-08-23T03:50:56.409Z,99219
2017-08-23T03:53:24.513Z,99214
2017-08-23T03:55:52.636Z,99211
2017-08-23T03:58:20.767Z,99215
2017-08-23T04:00:48.873Z,99209
2017-08-23T04:03:16.965Z,99209
2017-08-23T04:05:45.081Z,99210
2017-08-23T04:08:13.200Z,99218
2017-08-23T04:10:41.293Z,99211
2017-08-23T04:13:09.409Z,99221
2017-08-23T04:15:37.520Z,99210
2017-08-23T04:18:05.631Z,99218
2017-08-23T04:20:33.732Z,99223
2017-08-23T04:23:01.832Z,99219
2017-08-23T04:25:29.948Z,99230
2017-08-23T04:27:58.053Z,99229
2017-08-23T04:30:26.162Z,99237
2017-08-23T04:32:54.256Z,99230
2017-08-23T04:35:22.356Z,99240
2017-08-23T04:37:50.460Z,99237
2017-08-23T04:40:18.581Z,99237
2017-08-23T04:42:46.676Z,99230
2017-08-23T04:45:14.776Z,99225
2017-08-23T04:47:42.877Z,99230
2017-08-23T04:50:10.993Z,99232
2017-08-23T04:52:39.096Z,99230
2017-08-23T04:55:07.193Z,99222
2017-08-23T04:57:35.288Z,99230
2017-08-23T05:00:03.385Z,99223
2017-08-23T05:02:31.501Z,99226
2017-08-23T05:04:59.609Z,99230
2017-08-23T05:07:27.719Z,99223
2017-08-23T05:09:55.833Z,99223
2017-08-23T05:12:23.927Z,99222
2017-08-23T05:14:52.024Z,99225
2017-08-23T05:17:20.129Z,99224
2017-08-23T05:19:48.225Z,99226
2017-08-23T05:22:16.349Z,99228
2017-08-23T05:24:44.470Z,99222
2017-08-23T05:27:12.569Z,99228
2017-08-23T05:29:40.665Z,99218
2017-08-23T05:32:08.788Z,99219
2017-08-23T05:34:36.877Z,99215
2017-08-23T05:37:04.987Z,99219
2017-08-23T05:39:33.102Z,99221
2017-08-23T05:42:01.199Z,99220
2017-08-23T05:44:29.305Z,99225
2017-08-23T05:46:57.412Z,99219
2017-08-23T05:49:25.517Z,99231
2017-08-23T05:51:53.614Z,99219
2017-08-23T05:54:21.736Z,99219
2017-08-23T05:56:49.833Z,99226
2017-08-23T05:59:17.936Z,99216
2017-08-23T06:01:46.025Z,99201
2017-08-23T06:04:14.258Z,99191
2017-08-23T06:06:42.349Z,99178
2017-08-23T06:09:10.445Z,99173
2017-08-23T06:11:38.549Z,99164
2017-08-23T06:14:06.629Z,99182
2017-08-23T06:16:34.735Z,99179
2017-08-23T06:19:02.845Z,99199
2017-08-23T06:21:30.932Z,99199
2017-08-23T06:23:59.053Z,99212
2017-08-23T06:26:27.160Z,99209
2017-08-23T06:28:55.269Z,99208
2017-08-23T06:31:23.393Z,99207
2017-08-23T06:33:51.509Z,99209
2017-08-23T06:36:19.621Z,99208
2017-08-23T06:38:47.736Z,99212
2017-08-23T06:41:15.833Z,99209
2017-08-23T06:43:43.949Z,99202
2017-08-23T06:46:12.064Z,99209
2017-08-23T06:48:40.184Z,99212
2017-08-23T06:51:08.335Z,99213
2017-08-23T06:53:36.429Z,99202
2017-08-23T06:56:04.529Z,99208
2017-08-23T06:58:32.650Z,99192
2017-08-23T07:01:00.737Z,99194
2017-08-23T07:03:28.904Z,99198
2017-08-23T07:05:57.012Z,99199
2017-08-23T07:08:25.105Z,99191
2017-08-23T07:10:53.223Z,99187
2017-08-23T07:13:21.336Z,99187
2017-08-23T07:15:49.449Z,99177
2017-08-23T07:18:17.549Z,99186
2017-08-23T07:20:45.658Z,99186
2017-08-23T07:23:13.765Z,99190
2017-08-23T07:25:41.865Z,99188
2017-08-23T07:28:09.963Z,99186
2017-08-23T07:30:38.059Z,99188
2017-08-23T07:33:06.197Z,99187
2017-08-23T07:35:34.296Z,99186
2017-08-23T07:38:02.392Z,99180
2017-08-23T07:40:30.528Z,99182
2017-08-23T07:42:58.641Z,99179
2017-08-23T07:45:26.792Z,99177
2017-08-23T07:47:54.913Z,99176
2017-08-23T07:50:23.038Z,99180
2017-08-23T07:52:51.153Z,99181
2017-08-23T07:55:19.274Z,99179
2017-08-23T07:57:47.364Z,99170
2017-08-23T08:00:15.522Z,99173
2017-08-23T08:02:43.672Z,99174
2017-08-23T08:05:11.793Z,99166
2017-08-23T08:07:39.917Z,99160
2017-08-23T08:10:08.017Z,99164
2017-08-23T08:12:36.135Z,99166
2017-08-23T08:15:10.590Z,99158
2017-08-23T08:17:38.708Z,99155
2017-08-23T08:20:06.821Z,99151
2017-08-23T08:22:34.934Z,99150
2017-08-23T08:25:03.127Z,99149
2017-08-23T08:27:32.123Z,99152
2017-08-23T08:30:00.346Z,99147
2017-08-23T08:32:28.582Z,99147
2017-08-23T08:34:56.755Z,99156
2017-08-23T08:37:25.026Z,99153
2017-08-23T08:39:53.256Z,99153
2017-08-23T08:42:21.445Z,99149
2017-08-23T08:44:49.613Z,99147
2017-08-23T08:47:17.906Z,99147
2017-08-23T08:49:46.203Z,99145
2017-08-23T08:52:14.397Z,99142
2017-08-23T08:54:42.554Z,99147
2017-08-23T08:57:10.946Z,99147
2017-08-23T08:59:40.928Z,99148
2017-08-23T09:02:09.176Z,99145
2017-08-23T09:04:37.687Z,99137
2017-08-23T09:07:05.914Z,99143
2017-08-23T09:09:34.110Z,99134
2017-08-23T09:12:02.297Z,99135
2017-08-23T09:14:30.574Z,99134
2017-08-23T09:17:00.441Z,99133
2017-08-23T09:19:28.565Z,99135
2017-08-23T09:21:56.722Z,99135
2017-08-23T09:24:24.871Z,99125
2017-08-23T09:26:53.003Z,99131
2017-08-23T09:29:21.113Z,99129
2017-08-23T09:31:49.282Z,99128
2017-08-23T09:34:17.425Z,99132
2017-08-23T09:36:45.630Z,99134
2017-08-23T09:39:13.840Z,99122
2017-08-23T09:41:42.135Z,99133
2017-08-23T09:44:10.238Z,99122
2017-08-23T09:46:41.209Z,99129
2017-08-23T09:49:09.319Z,99124
2017-08-23T09:51:37.398Z,99115
2017-08-23T09:54:05.488Z,99125
2017-08-23T09:56:33.568Z,99129
2017-08-23T09:59:01.657Z,99117
2017-08-23T10:01:29.746Z,99127
2017-08-23T10:03:57.913Z,99127
2017-08-23T10:06:25.988Z,99116
2017-08-23T10:08:54.089Z,99115
2017-08-23T10:11:22.197Z,99119
2017-08-23T10:13:50.284Z,99117
2017-08-23T10:16:18.383Z,99117
2017-08-23T10:18:46.477Z,99112
2017-08-23T10:21:16.801Z,99116
2017-08-23T10:23:44.904Z,99112
2017-08-23T10:26:12.972Z,99109
2017-08-23T10:28:41.055Z,99110
2017-08-23T10:31:09.127Z,99097
2017-08-23T10:33:37.204Z,99096
2017-08-23T10:36:05.272Z,99101
2017-08-23T10:38:33.346Z,99110
2017-08-23T10:41:01.429Z,99103
2017-08-23T10:43:29.541Z,99099
2017-08-23T10:45:57.626Z,99095
2017-08-23T10:48:25.704Z,99091
2017-08-23T10:50:53.792Z,99096
2017-08-23T10:53:21.867Z,99097
2017-08-23T10:55:49.945Z,99095
2017-08-23T10:58:18.028Z,99090
2017-08-23T11:00:46.100Z,99097
2017-08-23T11:03:14.172Z,99101
2017-08-23T11:05:42.255Z,99089
2017-08-23T11:08:10.330Z,99085
2017-08-23T11:10:38.416Z,99082
2017-08-23T11:13:06.495Z,99076
2017-08-23T11:15:34.576Z,99084
2017-08-23T11:18:02.665Z,99072
2017-08-23T11:20:30.751Z,99081
2017-08-23T11:22:58.823Z,99069
2017-08-23T11:25:26.908Z,99068
2017-08-23T11:27:54.976Z,99067
2017-08-23T11:30:23.063Z,99065
2017-08-23T11:32:51.131Z,99058
2017-08-23T11:35:19.228Z,99057
2017-08-23T11:37:47.295Z,99050
2017-08-23T11:40:15.369Z,99047
2017-08-23T11:42:43.443Z,99043
2017-08-23T11:45:11.516Z,99040
2017-08-23T11:47:39.595Z,99038
2017-08-23T11:50:07.664Z,99032
2017-08-23T11:52:35.743Z,99044
2017-08-23T11:55:03.819Z,99028
2017-08-23T11:57:31.892Z,99030
2017-08-23T11:59:59.955Z,99026
2017-08-23T12:02:28.039Z,99026
2017-08-23T12:04:56.111Z,99019
2017-08-23T12:07:24.260Z,99005
2017-08-23T12:09:52.552Z,99003
2017-08-23T12:12:20.658Z,99013
2017-08-23T12:14:48.768Z,99019
2017-08-23T12:17:16.840Z,99006
2017-08-23T12:19:44.928Z,99009
2017-08-23T12:22:13.007Z,99007
2017-08-23T12:24:41.082Z,99006
2017-08-23T12:27:09.153Z,99011
2017-08-23T12:29:37.280Z,99005
2017-08-23T12:32:05.351Z,99004
2017-08-23T12:34:33.441Z,99003
2017-08-23T12:37:01.511Z,99000
2017-08-23T12:39:29.587Z,99002
2017-08-23T12:41:57.667Z,99000
2017-08-23T12:44:25.747Z,98996
2017-08-23T12:46:53.825Z,98994
2017-08-23T12:49:21.910Z,99003
2017-08-23T12:51:49.978Z,98997
2017-08-23T12:54:18.059Z,98999
2017-08-23T12:56:46.132Z,99003
2017-08-23T12:59:14.207Z,99003
2017-08-23T13:01:42.289Z,99000
2017-08-23T13:04:10.356Z,99003
2017-08-23T13:06:38.446Z,99007
2017-08-23T13:09:06.516Z,99002
2017-08-23T13:11:34.597Z,98997
2017-08-23T13:14:02.672Z,99005
2017-08-23T13:16:30.765Z,99003
2017-08-23T13:18:58.883Z,99003
2017-08-23T13:21:26.959Z,99014
2017-08-23T13:23:55.024Z,98997
2017-08-23T13:26:23.099Z,99000
2017-08-23T13:28:51.180Z,98997
2017-08-23T13:31:19.287Z,98995
2017-08-23T13:33:47.367Z,98993
2017-08-23T13:36:15.443Z,98991
2017-08-23T13:38:43.538Z,98988
2017-08-23T13:41:11.632Z,98985
2017-08-23T13:43:39.711Z,98981
2017-08-23T13:46:07.783Z,98983
2017-08-23T13:48:35.859Z,98984
2017-08-23T13:51:03.935Z,98980
2017-08-23T13:53:32.038Z,98980
2017-08-23T13:56:00.132Z,98981
2017-08-23T13:58:28.207Z,98975
2017-08-23T14:00:56.287Z,98981
2017-08-23T14:03:24.367Z,98982
2017-08-23T14:05:52.464Z,98981
2017-08-23T14:08:20.592Z,98977
2017-08-23T14:10:48.664Z,98974
2017-08-23T14:13:17.618Z,98970
2017-08-23T14:15:45.717Z,98963
2017-08-23T14:18:13.792Z,98966
2017-08-23T14:20:41.920Z,98961
2017-08-23T14:23:09.991Z,98968
2017-08-23T14:25:38.071Z,98963
2017-08-23T14:28:06.155Z,98967
2017-08-23T14:30:34.333Z,98958
2017-08-23T14:33:02.335Z,98951
2017-08-23T14:35:30.420Z,98956
2017-08-23T14:37:58.509Z,98953
2017-08-23T14:40:26.591Z,98949
2017-08-23T14:42:54.664Z,98952
2017-08-23T14:45:22.740Z,98946
2017-08-23T14:47:50.815Z,98946
2017-08-23T14:50:18.902Z,98949
2017-08-23T14:52:46.977Z,98946
2017-08-23T14:55:15.044Z,98949
2017-08-23T14:57:43.120Z,98943
2017-08-23T15:00:11.197Z,98945
2017-08-23T15:02:39.293Z,98946
2017-08-23T15:05:07.368Z,98942
2017-08-23T15:07:35.484Z,98946
2017-08-23T15:10:03.564Z,98943
2017-08-23T15:12:31.647Z,98933
2017-08-23T15:15:00.565Z,98934
2017-08-23T15:17:28.651Z,98930
2017-08-23T15:19:56.736Z,98935
2017-08-23T15:22:24.838Z,98930
2017-08-23T15:24:52.908Z,98931
2017-08-23T15:27:20.995Z,98927
2017-08-23T15:29:49.071Z,98927
2017-08-23T15:32:17.147Z,98930
2017-08-23T15:34:45.236Z,98930
2017-08-23T15:37:13.315Z,98924
2017-08-23T15:39:41.388Z,98924
2017-08-23T15:42:09.465Z,98930
2017-08-23T15:44:37.559Z,98927
2017-08-23T15:47:05.640Z,98923
2017-08-23T15:49:33.723Z,98924
2017-08-23T15:52:01.807Z,98918
2017-08-23T15:54:29.892Z,98910
2017-08-23T15:56:57.968Z,98912
2017-08-23T15:59:26.068Z,98920
2017-08-23T16:01:54.153Z,98922
2017-08-23T16:04:22.244Z,98911
2017-08-23T16:06:50.328Z,98909
2017-08-23T16:09:18.426Z,98904
2017-08-23T16:11:46.530Z,98909
2017-08-23T16:14:14.743Z,98909
2017-08-23T16:16:42.837Z,98907
2017-08-23T16:19:10.920Z,98910
2017-08-23T16:21:38.993Z,98913
2017-08-23T16:24:07.097Z,98901
2017-08-23T16:26:35.188Z,98906
2017-08-23T16:29:03.273Z,98905
2017-08-23T16:31:31.359Z,98902
2017-08-23T16:33:59.452Z,98906
2017-08-23T16:36:27.540Z,98902
2017-08-23T16:38:55.616Z,98895
2017-08-23T16:41:23.699Z,98897
2017-08-23T16:43:51.772Z,98893
2017-08-23T16:46:19.881Z,98892
2017-08-23T16:48:47.964Z,98896
2017-08-23T16:51:16.053Z,98889
2017-08-23T16:53:44.128Z,98886
2017-08-23T16:56:12.211Z,98886
2017-08-23T16:58:40.286Z,98897
2017-08-23T17:01:08.379Z,98892
2017-08-23T17:03:36.469Z,98895
2017-08-23T17:06:04.556Z,98880
2017-08-23T17:08:32.635Z,98887
2017-08-23T17:11:00.716Z,98878
2017-08-23T17:13:28.792Z,98881
2017-08-23T17:15:56.863Z,98890
2017-08-23T17:18:24.952Z,98884
2017-08-23T17:20:53.040Z,98889
2017-08-23T17:23:21.105Z,98879
2017-08-23T17:25:49.183Z,98883
2017-08-23T17:28:17.252Z,98891
2017-08-23T17:30:45.316Z,98896
2017-08-23T17:33:13.422Z,98891
2017-08-23T17:35:42.265Z,98905
2017-08-23T17:40:57.086Z,98897
2017-08-23T17:43:25.211Z,98891
2017-08-23T17:45:54.155Z,98892
2017-08-23T17:48:22.301Z,98899
2017-08-23T17:50:50.426Z,98890
2017-08-23T17:53:18.560Z,98898
2017-08-23T17:55:46.652Z,98892
2017-08-23T17:58:14.819Z,98895
2017-08-23T18:00:42.934Z,98894
2017-08-23T18:03:11.182Z,98897
2017-08-23T18:05:39.314Z,98891
2017-08-23T18:08:07.436Z,98895
2017-08-23T18:10:35.629Z,98904
2017-08-23T18:13:03.884Z,98902
2017-08-23T18:15:32.028Z,98913
2017-08-23T18:18:00.371Z,98903
2017-08-23T18:20:33.855Z,98900
2017-08-23T18:25:47.164Z,98899
2017-08-23T18:28:21.273Z,98907
2017-08-23T18:30:51.212Z,98911
2017-08-23T18:33:19.743Z,98903
2017-08-23T18:35:47.976Z,98909
2017-08-23T18:38:16.211Z,98905
2017-08-23T18:40:44.465Z,98912
2017-08-23T18:43:12.878Z,98909
2017-08-23T18:45:41.181Z,98907
2017-08-23T18:48:09.390Z,98912
2017-08-23T18:50:47.180Z,98912
2017-08-23T18:53:21.955Z,98910
2017-08-23T18:56:05.450Z,98914
2017-08-23T18:58:37.202Z,98912
2017-08-23T19:01:06.588Z,98912
2017-08-23T19:03:35.655Z,98914
2017-08-23T19:06:07.403Z,98912
2017-08-23T19:08:35.647Z,98919
2017-08-23T19:11:06.270Z,98925
2017-08-23T19:13:39.131Z,98920
2017-08-23T19:16:18.253Z,98918
2017-08-23T19:18:48.706Z,98917
2017-08-23T19:21:17.912Z,98914
2017-08-23T19:23:46.061Z,98921
2017-08-23T19:26:24.827Z,98918
2017-08-23T19:28:55.483Z,98920
2017-08-23T19:31:24.333Z,98912
2017-08-23T19:33:52.725Z,98901
2017-08-23T19:36:20.858Z,98910
2017-08-23T19:38:49.579Z,98910
2017-08-23T19:41:17.663Z,98906
2017-08-23T19:43:45.752Z,98907
2017-08-23T19:46:13.836Z,98905
2017-08-23T19:48:41.924Z,98910
2017-08-23T19:51:09.999Z,98906
2017-08-23T19:53:38.076Z,98902
2017-08-23T19:56:06.284Z,98904
2017-08-23T19:58:34.415Z,98908
2017-08-23T20:01:02.504Z,98905
2017-08-23T20:03:30.580Z,98910
2017-08-23T20:05:58.672Z,98907
2017-08-23T20:08:26.757Z,98911
2017-08-23T20:10:55.074Z,98911
2017-08-23T20:13:23.145Z,98903
2017-08-23T20:15:51.229Z,98907
2017-08-23T20:18:19.292Z,98913
2017-08-23T20:20:47.371Z,98919
2017-08-23T20:23:15.457Z,98923
2017-08-23T20:25:43.539Z,98926
2017-08-23T20:28:11.608Z,98919
2017-08-23T20:30:39.679Z,98919
2017-08-23T20:33:07.944Z,98920
2017-08-23T20:35:36.073Z,98915
2017-08-23T20:38:04.405Z,98911
2017-08-23T20:40:32.472Z,98923
2017-08-23T20:43:00.553Z,98926
2017-08-23T20:45:28.625Z,98925
2017-08-23T20:47:56.723Z,98926
2017-08-23T20:50:24.797Z,98908
2017-08-23T20:52:52.943Z,98900
2017-08-23T20:55:21.024Z,98910
2017-08-23T20:57:49.121Z,98921
2017-08-23T21:00:17.197Z,98928
2017-08-23T21:02:45.284Z,98919
2017-08-23T21:05:13.364Z,98934
2017-08-23T21:07:41.531Z,98932
2017-08-23T21:10:09.619Z,98924
2017-08-23T21:12:37.731Z,98934
2017-08-23T21:15:05.831Z,98938
2017-08-23T21:17:33.900Z,98935
2017-08-23T21:20:02.017Z,98941
2017-08-23T21:22:30.093Z,98941
2017-08-23T21:24:58.177Z,98935
2017-08-23T21:27:26.247Z,98933
2017-08-23T21:29:54.335Z,98926
2017-08-23T21:32:22.444Z,98936
2017-08-23T21:34:50.544Z,98940
2017-08-23T21:37:18.625Z,98946
2017-08-23T21:39:46.707Z,98948
2017-08-23T21:42:14.814Z,98946
2017-08-23T21:44:43.063Z,98943
2017-08-23T21:47:11.181Z,98939
2017-08-23T21:49:39.278Z,98934
2017-08-23T21:52:07.385Z,98941
2017-08-23T21:54:35.488Z,98936
2017-08-23T21:57:03.574Z,98922
2017-08-23T21:59:31.651Z,98933
2017-08-23T22:01:59.751Z,98921
2017-08-23T22:04:27.837Z,98921
2017-08-23T22:06:55.960Z,98923
2017-08-23T22:09:24.096Z,98915
2017-08-23T22:11:52.199Z,98918
2017-08-23T22:14:20.304Z,98907
2017-08-23T22:16:48.393Z,98916
2017-08-23T22:19:16.658Z,98916
2017-08-23T22:21:45.176Z,98919
2017-08-23T22:24:13.248Z,98920
2017-08-23T22:26:41.336Z,98925
2017-08-23T22:29:09.416Z,98932
2017-08-23T22:31:37.508Z,98937
2017-08-23T22:34:05.587Z,98940
2017-08-23T22:36:33.664Z,98936
2017-08-23T22:39:01.747Z,98935
2017-08-23T22:41:29.826Z,98926
2017-08-23T22:43:57.920Z,98928
2017-08-23T22:46:25.990Z,98928
2017-08-23T22:48:54.076Z,98935
2017-08-23T22:51:22.160Z,98926
2017-08-23T22:53:50.267Z,98931
2017-08-23T22:56:18.379Z,98934
2017-08-23T22:58:47.274Z,98935
2017-08-23T23:01:15.365Z,98932
2017-08-23T23:03:43.454Z,98934
2017-08-23T23:06:11.525Z,98929
2017-08-23T23:08:39.629Z,98929
2017-08-23T23:11:07.710Z,98921
2017-08-23T23:13:35.785Z,98926
2017-08-23T23:16:03.884Z,98931
2017-08-23T23:18:31.961Z,98928
2017-08-23T23:21:00.045Z,98932
2017-08-23T23:23:28.120Z,98935
2017-08-23T23:25:56.219Z,98923
2017-08-23T23:28:24.300Z,98923
2017-08-23T23:30:52.389Z,98931
2017-08-23T23:33:20.472Z,98924
2017-08-23T23:35:48.569Z,98921
2017-08-23T23:38:16.664Z,98914
2017-08-23T23:40:44.757Z,98908
2017-08-23T23:43:12.849Z,98910
2017-08-23T23:45:40.945Z,98911
2017-08-23T23:48:09.038Z,98919
2017-08-23T23:50:37.164Z,98919
2017-08-23T23:53:05.248Z,98911
2017-08-23T23:55:33.323Z,98921
2017-08-23T23:58:01.426Z,98903
